Aqualoyalty — A8ZC6 — position and weather

sailwx.info

Track history (hours):
 
Tides and Currents Weather Stations Pressure Air Temp Water Temp Dewpoint Dewpoint Depression Visibility Wind Speed Wind Dir Waves Ship Positions

Aqualoyalty

Last reported at 2015-May-13 21:21 UTC. Time now 2015-Jun-03 05:25 UTC.
Position N 34°52' W 123°34'.
Warning: this ship's position is 20 days out of date.

Length 249 m; draft 7.2 m.

Type: Ship. MMSI: 636015177.

Date/timePositionNaut miles runAvg speedWind from/ knotsBaromVisibWave heightAir tempDewpointWater temp
2015-May-13 21:21N 34°52' W 123°34'4310.8
2015-May-13 17:21N 35°36' W 123°32'911.6
2015-May-13 16:32N 35°45' W 123°28'1312.3
2015-May-13 15:31N 35°56' W 123°22'1111.3
2015-May-13 14:33N 36°06' W 123°17'3110.2
2015-May-13 11:33N 36°36' W 123°08'1110.6
2015-May-13 10:33N 36°46' W 123°08'1110.9
2015-May-13 09:33N 36°57' W 123°09'1411.0
2015-May-13 08:15N 37°12' W 123°10'710.5
2015-May-13 07:33N 37°19' W 123°09'1010.2
2015-May-13 06:33N 37°29' W 123°08'9 9.2
2015-May-13 05:33N 37°36' W 123°00'1010.2
2015-May-13 04:33N 37°42' W 122°49'10 9.5
2015-May-13 03:33N 37°46' W 122°39'1110.5
2015-May-13 02:32N 37°51' W 122°26'9 9.2
2015-May-13 01:33N 37°44' W 122°19'0 0.1
2015-May-13 00:31N 37°44' W 122°19'0 0.0
2015-May-12 23:28N 37°44' W 122°19'0 0.0
2015-May-12 22:25N 37°44' W 122°19'0 0.1
2015-May-12 21:31N 37°44' W 122°19'0 0.1
2015-May-12 20:31N 37°44' W 122°19'0 0.2
2015-May-12 19:31N 37°44' W 122°20'0 0.0
2015-May-12 18:31N 37°44' W 122°20'0 0.0
2015-May-12 17:31N 37°44' W 122°20'0 0.0
2015-May-12 16:31N 37°44' W 122°19'0 0.1
2015-May-12 15:31N 37°44' W 122°19'0 0.1
2015-May-12 14:31N 37°44' W 122°19'0 0.1
2015-May-12 13:31N 37°44' W 122°19'3 2.9
2015-May-12 12:33N 37°46' W 122°22'10 9.8
2015-May-12 11:33N 37°55' W 122°27'1110.8
2015-May-12 10:33N 38°03' W 122°19'9 0.3
2015-May-10 23:33N 38°02' W 122°08'5 4.7
2015-May-10 22:33N 38°04' W 122°13'9 9.1
2015-May-10 21:34N 38°01' W 122°24'9 9.0
2015-May-10 20:33N 37°52' W 122°25'9 9.1
2015-May-10 19:33N 37°47' W 122°34'1110.9
2015-May-10 18:33N 37°41' W 122°46'1211.9
2015-May-10 17:33N 37°35' W 122°59'1111.3
2015-May-10 16:33N 37°25' W 123°06'1211.5
2015-May-10 15:31N 37°13' W 123°09'3 2.6
2015-May-10 14:34N 37°11' W 123°11'1 0.9
2015-May-10 13:33N 37°12' W 123°12'1 0.7
2015-May-10 12:33N 37°12' W 123°13'1 0.7
2015-May-10 11:33N 37°12' W 123°14'2 2.4
2015-May-10 10:34N 37°10' W 123°14'10 9.4
2015-May-10 09:29N 37°00' W 123°19'9 9.3
2015-May-10 08:34N 36°52' W 123°22'10 9.6
2015-May-10 07:33N 36°43' W 123°26'9 9.4
2015-May-10 06:33N 36°33' W 123°27'10 9.4
2015-May-10 05:30N 36°24' W 123°29'9 9.2
2015-May-10 04:34N 36°15' W 123°30'9 9.3
2015-May-10 03:34N 36°06' W 123°32'9 9.4
2015-May-10 02:33N 35°57' W 123°34'9 9.4
2015-May-10 01:33N 35°47' W 123°35'9 9.2
2015-May-10 00:34N 35°38' W 123°37'9 9.3
2015-May-09 23:34N 35°29' W 123°37'10 9.7
2015-May-09 22:34N 35°19' W 123°38'10 9.9
2015-May-09 21:34N 35°09' W 123°39'10 9.2
2015-May-09 20:31N 35°00' W 123°35'9 9.2
2015-May-09 19:33N 34°53' W 123°30'272 9.6
2015-May-08 15:12N 33°38' W 118°13'5 8.1
2015-May-08 14:33N 33°43' W 118°11'2 2.2
2015-May-08 13:33N 33°43' W 118°14'0 0.2
2015-May-08 12:33N 33°43' W 118°13'0 0.1
2015-May-08 11:33N 33°43' W 118°13'0 0.0
2015-May-08 10:33N 33°43' W 118°13'0 0.0
2015-May-08 09:30N 33°43' W 118°13'0 0.1
2015-May-08 08:19N 33°43' W 118°14'2 3.1
2015-May-08 07:33N 33°42' W 118°11'8 7.9
2015-May-08 06:29N 33°34' W 118°09'9 9.5
2015-May-08 05:33N 33°26' W 118°06'1110.8
2015-May-08 04:33N 33°16' W 118°01'1211.8
2015-May-08 03:33N 33°05' W 117°55'1212.0
2015-May-08 02:33N 32°53' W 117°51'1212.1
2015-May-08 01:33N 32°42' W 117°48'9 9.4
2015-May-08 00:33N 32°33' W 117°45'1111.0
2015-May-07 23:33N 32°22' W 117°43'1211.5
2015-May-07 22:33N 32°10' W 117°40'64 6.1
2015-May-07 12:03N 31°07' W 117°51'6 1.9
2015-May-07 09:06N 31°09' W 117°57'1 1.5
2015-May-07 08:28N 31°10' W 117°58'1 1.6
2015-May-07 07:33N 31°11' W 117°59'2 2.2
2015-May-07 06:32N 31°11' W 118°02'2 1.7
2015-May-07 05:33N 31°12' W 118°03'2 2.3
2015-May-07 04:32N 31°13' W 118°06'2 2.0
2015-May-07 03:33N 31°14' W 118°08'2 1.9
2015-May-07 02:33N 31°15' W 118°10'2 2.3
2015-May-07 01:29N 31°16' W 118°12'3 2.4
2015-May-07 00:25N 31°18' W 118°15'2 2.6
2015-May-06 23:32N 31°19' W 118°17'2 2.5
2015-May-06 22:33N 31°20' W 118°19'3 2.9
2015-May-06 21:33N 31°22' W 118°22'6 5.3
2015-May-06 20:19N 31°26' W 118°28'27 7.1
2015-May-06 16:32N 31°27' W 118°59'1513.0
2015-May-06 15:24N 31°31' W 119°16'1213.4
2015-May-06 14:31N 31°35' W 119°29'1413.1
2015-May-06 13:25N 31°40' W 119°45'21311.6
2015-May-05 19:04N 34°18' W 122°35'813.1
2015-May-05 18:27N 34°26' W 122°39'1213.1
2015-May-05 17:33N 34°37' W 122°44'1313.0
2015-May-05 16:33N 34°49' W 122°49'1312.7
2015-May-05 15:33N 35°01' W 122°54'1312.8
2015-May-05 14:33N 35°13' W 122°59'1312.9
2015-May-05 13:33N 35°25' W 123°05'2612.9
2015-May-05 11:33N 35°49' W 123°15'1312.8
2015-May-05 10:33N 36°02' W 123°20'1312.8
2015-May-05 09:32N 36°15' W 123°17'1312.7
2015-May-05 08:29N 36°28' W 123°15'1212.6
2015-May-05 07:31N 36°40' W 123°13'1212.5
2015-May-05 06:33N 36°52' W 123°11'1312.6
2015-May-05 05:33N 37°05' W 123°09'1212.5
2015-May-05 04:33N 37°17' W 123°11'1313.0
2015-May-05 03:33N 37°30' W 123°09'1212.0
2015-May-05 02:33N 37°37' W 122°58'1211.9
2015-May-05 01:33N 37°42' W 122°44'10 9.6
2015-May-05 00:33N 37°47' W 122°34'9 9.0
2015-May-04 23:33N 37°47' W 122°22'2 1.4
2015-May-04 22:29N 37°46' W 122°21'0 0.1
2015-May-04 21:29N 37°46' W 122°21'0 0.2
2015-May-04 20:29N 37°45' W 122°21'0 0.1
2015-May-04 19:32N 37°45' W 122°21'0 0.0
2015-May-04 18:32N 37°45' W 122°21'0 0.0
2015-May-04 17:32N 37°45' W 122°21'0 0.0
2015-May-04 16:29N 37°45' W 122°21'0 0.1
2015-May-04 15:32N 37°45' W 122°21'0 0.2
2015-May-04 14:29N 37°46' W 122°21'0 0.2
2015-May-04 13:33N 37°46' W 122°21'9 8.7
2015-May-04 12:33N 37°54' W 122°26'1212.0
2015-May-04 11:33N 38°03' W 122°17'  
Track history (hours):
 
Tides and Currents Weather Stations Pressure Air Temp Water Temp Dewpoint Dewpoint Depression Visibility Wind Speed Wind Dir Waves Ship Positions

Aqualoyalty

Last reported at 2015-May-13 21:21 UTC. Time now 2015-Jun-03 05:25 UTC.
Position N 34°52' W 123°34'.
Warning: this ship's position is 20 days out of date.

Length 249 m; draft 7.2 m.

Type: Ship. MMSI: 636015177.

Date/timePositionNaut miles runAvg speedWind from/ knotsBaromVisibWave heightAir tempDewpointWater temp
2015-May-13 21:21N 34°52' W 123°34'4310.8
2015-May-13 17:21N 35°36' W 123°32'911.6
2015-May-13 16:32N 35°45' W 123°28'1312.3
2015-May-13 15:31N 35°56' W 123°22'1111.3
2015-May-13 14:33N 36°06' W 123°17'3110.2
2015-May-13 11:33N 36°36' W 123°08'1110.6
2015-May-13 10:33N 36°46' W 123°08'1110.9
2015-May-13 09:33N 36°57' W 123°09'1411.0
2015-May-13 08:15N 37°12' W 123°10'710.5
2015-May-13 07:33N 37°19' W 123°09'1010.2
2015-May-13 06:33N 37°29' W 123°08'9 9.2
2015-May-13 05:33N 37°36' W 123°00'1010.2
2015-May-13 04:33N 37°42' W 122°49'10 9.5
2015-May-13 03:33N 37°46' W 122°39'1110.5
2015-May-13 02:32N 37°51' W 122°26'9 9.2
2015-May-13 01:33N 37°44' W 122°19'0 0.1
2015-May-13 00:31N 37°44' W 122°19'0 0.0
2015-May-12 23:28N 37°44' W 122°19'0 0.0
2015-May-12 22:25N 37°44' W 122°19'0 0.1
2015-May-12 21:31N 37°44' W 122°19'0 0.1
2015-May-12 20:31N 37°44' W 122°19'0 0.2
2015-May-12 19:31N 37°44' W 122°20'0 0.0
2015-May-12 18:31N 37°44' W 122°20'0 0.0
2015-May-12 17:31N 37°44' W 122°20'0 0.0
2015-May-12 16:31N 37°44' W 122°19'0 0.1
2015-May-12 15:31N 37°44' W 122°19'0 0.1
2015-May-12 14:31N 37°44' W 122°19'0 0.1
2015-May-12 13:31N 37°44' W 122°19'3 2.9
2015-May-12 12:33N 37°46' W 122°22'10 9.8
2015-May-12 11:33N 37°55' W 122°27'1110.8
2015-May-12 10:33N 38°03' W 122°19'9 0.3
2015-May-10 23:33N 38°02' W 122°08'5 4.7
2015-May-10 22:33N 38°04' W 122°13'9 9.1
2015-May-10 21:34N 38°01' W 122°24'9 9.0
2015-May-10 20:33N 37°52' W 122°25'9 9.1
2015-May-10 19:33N 37°47' W 122°34'1110.9
2015-May-10 18:33N 37°41' W 122°46'1211.9
2015-May-10 17:33N 37°35' W 122°59'1111.3
2015-May-10 16:33N 37°25' W 123°06'1211.5
2015-May-10 15:31N 37°13' W 123°09'3 2.6
2015-May-10 14:34N 37°11' W 123°11'1 0.9
2015-May-10 13:33N 37°12' W 123°12'1 0.7
2015-May-10 12:33N 37°12' W 123°13'1 0.7
2015-May-10 11:33N 37°12' W 123°14'2 2.4
2015-May-10 10:34N 37°10' W 123°14'10 9.4
2015-May-10 09:29N 37°00' W 123°19'9 9.3
2015-May-10 08:34N 36°52' W 123°22'10 9.6
2015-May-10 07:33N 36°43' W 123°26'9 9.4
2015-May-10 06:33N 36°33' W 123°27'10 9.4
2015-May-10 05:30N 36°24' W 123°29'9 9.2
2015-May-10 04:34N 36°15' W 123°30'9 9.3
2015-May-10 03:34N 36°06' W 123°32'9 9.4
2015-May-10 02:33N 35°57' W 123°34'9 9.4
2015-May-10 01:33N 35°47' W 123°35'9 9.2
2015-May-10 00:34N 35°38' W 123°37'9 9.3
2015-May-09 23:34N 35°29' W 123°37'10 9.7
2015-May-09 22:34N 35°19' W 123°38'10 9.9
2015-May-09 21:34N 35°09' W 123°39'10 9.2
2015-May-09 20:31N 35°00' W 123°35'9 9.2
2015-May-09 19:33N 34°53' W 123°30'272 9.6
2015-May-08 15:12N 33°38' W 118°13'5 8.1
2015-May-08 14:33N 33°43' W 118°11'2 2.2
2015-May-08 13:33N 33°43' W 118°14'0 0.2
2015-May-08 12:33N 33°43' W 118°13'0 0.1
2015-May-08 11:33N 33°43' W 118°13'0 0.0
2015-May-08 10:33N 33°43' W 118°13'0 0.0
2015-May-08 09:30N 33°43' W 118°13'0 0.1
2015-May-08 08:19N 33°43' W 118°14'2 3.1
2015-May-08 07:33N 33°42' W 118°11'8 7.9
2015-May-08 06:29N 33°34' W 118°09'9 9.5
2015-May-08 05:33N 33°26' W 118°06'1110.8
2015-May-08 04:33N 33°16' W 118°01'1211.8
2015-May-08 03:33N 33°05' W 117°55'1212.0
2015-May-08 02:33N 32°53' W 117°51'1212.1
2015-May-08 01:33N 32°42' W 117°48'9 9.4
2015-May-08 00:33N 32°33' W 117°45'1111.0
2015-May-07 23:33N 32°22' W 117°43'1211.5
2015-May-07 22:33N 32°10' W 117°40'64 6.1
2015-May-07 12:03N 31°07' W 117°51'6 1.9
2015-May-07 09:06N 31°09' W 117°57'1 1.5
2015-May-07 08:28N 31°10' W 117°58'1 1.6
2015-May-07 07:33N 31°11' W 117°59'2 2.2
2015-May-07 06:32N 31°11' W 118°02'2 1.7
2015-May-07 05:33N 31°12' W 118°03'2 2.3
2015-May-07 04:32N 31°13' W 118°06'2 2.0
2015-May-07 03:33N 31°14' W 118°08'2 1.9
2015-May-07 02:33N 31°15' W 118°10'2 2.3
2015-May-07 01:29N 31°16' W 118°12'3 2.4
2015-May-07 00:25N 31°18' W 118°15'2 2.6
2015-May-06 23:32N 31°19' W 118°17'2 2.5
2015-May-06 22:33N 31°20' W 118°19'3 2.9
2015-May-06 21:33N 31°22' W 118°22'6 5.3
2015-May-06 20:19N 31°26' W 118°28'27 7.1
2015-May-06 16:32N 31°27' W 118°59'1513.0
2015-May-06 15:24N 31°31' W 119°16'1213.4
2015-May-06 14:31N 31°35' W 119°29'1413.1
2015-May-06 13:25N 31°40' W 119°45'21311.6
2015-May-05 19:04N 34°18' W 122°35'813.1
2015-May-05 18:27N 34°26' W 122°39'1213.1
2015-May-05 17:33N 34°37' W 122°44'1313.0
2015-May-05 16:33N 34°49' W 122°49'1312.7
2015-May-05 15:33N 35°01' W 122°54'1312.8
2015-May-05 14:33N 35°13' W 122°59'1312.9
2015-May-05 13:33N 35°25' W 123°05'2612.9
2015-May-05 11:33N 35°49' W 123°15'1312.8
2015-May-05 10:33N 36°02' W 123°20'1312.8
2015-May-05 09:32N 36°15' W 123°17'1312.7
2015-May-05 08:29N 36°28' W 123°15'1212.6
2015-May-05 07:31N 36°40' W 123°13'1212.5
2015-May-05 06:33N 36°52' W 123°11'1312.6
2015-May-05 05:33N 37°05' W 123°09'1212.5
2015-May-05 04:33N 37°17' W 123°11'1313.0
2015-May-05 03:33N 37°30' W 123°09'1212.0
2015-May-05 02:33N 37°37' W 122°58'1211.9
2015-May-05 01:33N 37°42' W 122°44'10 9.6
2015-May-05 00:33N 37°47' W 122°34'9 9.0
2015-May-04 23:33N 37°47' W 122°22'2 1.4
2015-May-04 22:29N 37°46' W 122°21'0 0.1
2015-May-04 21:29N 37°46' W 122°21'0 0.2
2015-May-04 20:29N 37°45' W 122°21'0 0.1
2015-May-04 19:32N 37°45' W 122°21'0 0.0
2015-May-04 18:32N 37°45' W 122°21'0 0.0
2015-May-04 17:32N 37°45' W 122°21'0 0.0
2015-May-04 16:29N 37°45' W 122°21'0 0.1
2015-May-04 15:32N 37°45' W 122°21'0 0.2
2015-May-04 14:29N 37°46' W 122°21'0 0.2
2015-May-04 13:33N 37°46' W 122°21'9 8.7
2015-May-04 12:33N 37°54' W 122°26'1212.0
2015-May-04 11:33N 38°03' W 122°17'  

Dump ship's entire track history